createdAt,value
2018-12-03T00:00:01.384Z,98.85
2018-12-03T00:05:01.663Z,98.92
2018-12-03T00:10:01.913Z,98.92
2018-12-03T00:15:01.256Z,98.96
2018-12-03T00:20:01.555Z,98.92
2018-12-03T00:25:01.854Z,98.71
2018-12-03T00:30:02.152Z,98.62
2018-12-03T00:35:01.423Z,98.78
2018-12-03T00:40:01.706Z,98.72
2018-12-03T00:45:01.983Z,98.77
2018-12-03T00:50:01.307Z,99.15
2018-12-03T00:55:01.556Z,99.06
2018-12-03T01:00:01.838Z,99.05
2018-12-03T01:05:02.133Z,99
2018-12-03T01:10:01.378Z,99.01
2018-12-03T01:15:01.629Z,98.79
2018-12-03T01:20:01.891Z,98.76
2018-12-03T01:25:02.183Z,98.72
2018-12-03T01:30:01.450Z,98.79
2018-12-03T01:35:01.715Z,98.72
2018-12-03T01:40:01.958Z,98.83
2018-12-03T01:45:01.275Z,98.78
2018-12-03T01:50:01.550Z,99.14
2018-12-03T01:55:01.905Z,99.01
2018-12-03T02:00:02.197Z,98.99
2018-12-03T02:05:01.597Z,98.96
2018-12-03T02:10:02.009Z,98.88
2018-12-03T02:15:01.276Z,98.83
2018-12-03T02:20:01.580Z,98.89
2018-12-03T02:25:01.845Z,98.95
2018-12-03T02:30:02.137Z,99.24
2018-12-03T02:35:01.479Z,98.95
2018-12-03T02:40:01.808Z,98.92
2018-12-03T02:45:02.051Z,98.95
2018-12-03T02:50:01.351Z,98.98
2018-12-03T02:55:01.616Z,98.99
2018-12-03T03:00:01.878Z,99.09
2018-12-03T03:05:02.106Z,98.91
2018-12-03T03:10:01.377Z,98.95
2018-12-03T03:15:01.599Z,98.95
2018-12-03T03:20:01.832Z,98.95
2018-12-03T03:25:02.100Z,98.95
2018-12-03T03:30:01.377Z,99.08
2018-12-03T03:35:01.675Z,99
2018-12-03T03:40:01.886Z,99.26
2018-12-03T03:45:02.111Z,99.24
2018-12-03T03:50:01.366Z,99.26
2018-12-03T03:55:01.629Z,99.05
2018-12-03T04:00:01.910Z,98.98
2018-12-03T04:05:01.201Z,98.97
2018-12-03T04:10:01.489Z,99.26
2018-12-03T04:15:01.759Z,99.2
2018-12-03T04:20:02.076Z,99.16
2018-12-03T04:25:01.336Z,99.11
2018-12-03T04:30:01.624Z,99.07
2018-12-03T04:35:01.906Z,99.13
2018-12-03T04:40:02.250Z,99.04
2018-12-03T04:45:01.525Z,99.36
2018-12-03T04:50:01.793Z,99.39
2018-12-03T04:55:02.014Z,99.27
2018-12-03T05:00:01.263Z,99.02
2018-12-03T05:05:01.527Z,98.7
2018-12-03T05:10:01.752Z,98.66
2018-12-03T05:15:02.034Z,98.43
2018-12-03T05:20:01.327Z,98.28
2018-12-03T05:25:01.580Z,98.27
2018-12-03T05:30:01.811Z,100.18
2018-12-03T05:35:02.138Z,98.18
2018-12-03T05:40:01.594Z,98.29
2018-12-03T05:45:01.835Z,98.66
2018-12-03T05:50:02.059Z,98.5
2018-12-03T05:55:01.332Z,99.4
2018-12-03T06:00:01.597Z,99.06
2018-12-03T06:05:01.898Z,98.92
2018-12-03T06:10:02.148Z,99.05
2018-12-03T06:15:01.388Z,98.96
2018-12-03T06:20:01.672Z,98.82
2018-12-03T06:25:01.916Z,99.08
2018-12-03T06:30:01.157Z,99.04
2018-12-03T06:35:01.413Z,99.14
2018-12-03T06:40:01.661Z,99.23
2018-12-03T06:45:01.928Z,99.34
2018-12-03T06:50:01.185Z,99.19
2018-12-03T06:55:01.439Z,99.24
2018-12-03T07:00:01.717Z,99.1
2018-12-03T07:05:01.981Z,99.04
2018-12-03T07:10:01.242Z,99.09
2018-12-03T07:15:01.539Z,98.9
2018-12-03T07:20:01.796Z,98.95
2018-12-03T07:25:02.020Z,98.95
2018-12-03T07:30:01.261Z,98.76
2018-12-03T07:35:01.569Z,98.84
2018-12-03T07:40:01.805Z,98.81
2018-12-03T07:45:02.048Z,98.76
2018-12-03T07:50:01.296Z,98.59
2018-12-03T07:55:01.567Z,98.71
2018-12-03T08:00:01.820Z,98.63
2018-12-03T08:05:03.688Z,98.44
2018-12-03T08:10:01.913Z,98.48
2018-12-03T08:15:02.211Z,98.61
2018-12-03T08:20:01.499Z,98.52
2018-12-03T08:25:01.809Z,98.6
2018-12-03T08:30:02.041Z,98.76
2018-12-03T08:35:01.303Z,98.69
2018-12-03T08:40:01.561Z,98.8
2018-12-03T08:45:01.827Z,98.69
2018-12-03T08:50:02.064Z,98.92
2018-12-03T08:55:01.318Z,99.07
2018-12-03T09:00:01.581Z,98.99
2018-12-03T09:05:01.860Z,98.73
2018-12-03T09:10:02.116Z,98.89
2018-12-03T09:15:01.421Z,98.97
2018-12-03T09:20:01.686Z,99.09
2018-12-03T09:25:01.928Z,99.18
2018-12-03T09:30:01.156Z,99.11
2018-12-03T09:35:01.421Z,98.97
2018-12-03T09:40:01.660Z,98.99
2018-12-03T09:45:01.903Z,99.06
2018-12-03T09:50:02.135Z,99.27
2018-12-03T09:55:01.386Z,99.11
2018-12-03T10:00:01.646Z,99.05
2018-12-03T10:05:01.931Z,99.07
2018-12-03T10:10:01.266Z,99.2
2018-12-03T10:15:01.604Z,99.08
2018-12-03T10:20:01.860Z,99.14
2018-12-03T10:25:02.198Z,99.14
2018-12-03T10:30:01.414Z,98.97
2018-12-03T10:35:01.673Z,99
2018-12-03T10:40:01.918Z,98.74
2018-12-03T10:45:02.140Z,98.69
2018-12-03T10:50:01.486Z,98.43
2018-12-03T10:55:01.779Z,98.76
2018-12-03T11:00:02.020Z,98.76
2018-12-03T11:05:01.348Z,98.73
2018-12-03T11:10:01.623Z,98.83
2018-12-03T11:15:01.885Z,98.63
2018-12-03T11:20:02.117Z,98.56
2018-12-03T11:25:01.354Z,98.76
2018-12-03T11:30:01.609Z,98.66
2018-12-03T11:35:06.058Z,98.56
2018-12-03T11:40:01.343Z,98.47
2018-12-03T11:45:01.628Z,98.54
2018-12-03T11:50:01.895Z,98.48
2018-12-03T11:55:02.150Z,99.71
2018-12-03T12:00:01.365Z,97.94
2018-12-03T12:05:01.663Z,100.05
2018-12-03T12:10:01.905Z,99.98
2018-12-03T12:15:02.145Z,98.53
2018-12-03T12:20:01.399Z,97.73
2018-12-03T12:25:01.651Z,98.03
2018-12-03T12:30:01.894Z,99.89
2018-12-03T12:35:02.146Z,98.25
2018-12-03T12:40:01.399Z,98.34
2018-12-03T12:45:01.654Z,98.06
2018-12-03T12:50:01.899Z,100.03
2018-12-03T12:55:02.147Z,99.87
2018-12-03T13:00:01.432Z,98.44
2018-12-03T13:05:01.693Z,100.14
2018-12-03T13:10:01.931Z,98.24
2018-12-03T13:15:01.200Z,98.66
2018-12-03T13:20:01.500Z,98.52
2018-12-03T13:25:01.764Z,98.66
2018-12-03T13:30:02.027Z,98.6
2018-12-03T13:35:01.321Z,98.56
2018-12-03T13:40:01.576Z,98.53
2018-12-03T13:45:01.806Z,98.66
2018-12-03T13:50:02.049Z,98.78
2018-12-03T13:55:01.295Z,98.98
2018-12-03T14:00:01.560Z,98.85
2018-12-03T14:05:01.847Z,98.71
2018-12-03T14:10:02.075Z,98.72
2018-12-03T14:15:01.370Z,98.91
2018-12-03T14:20:01.797Z,98.82
2018-12-03T14:25:02.072Z,98.64
2018-12-03T14:30:01.352Z,98.68
2018-12-03T14:35:01.664Z,98.71
2018-12-03T14:40:01.898Z,98.56
2018-12-03T14:45:02.143Z,98.72
2018-12-03T14:50:01.438Z,98.86
2018-12-03T14:55:01.244Z,98.83
2018-12-03T15:00:01.658Z,98.93
2018-12-03T15:05:01.998Z,98.76
2018-12-03T15:10:01.258Z,98.68
2018-12-03T15:15:01.496Z,98.72
2018-12-03T15:20:01.793Z,98.78
2018-12-03T15:25:02.038Z,98.69
2018-12-03T15:30:01.289Z,98.53
2018-12-03T15:35:01.540Z,98.46
2018-12-03T15:40:01.832Z,98.35
2018-12-03T15:45:02.045Z,98.4
2018-12-03T15:50:01.332Z,98.27
2018-12-03T15:55:01.819Z,98.36
2018-12-03T16:00:01.270Z,98.23
2018-12-03T16:05:01.578Z,98.32
2018-12-03T16:10:01.828Z,98.37
2018-12-03T16:15:02.127Z,98.27
2018-12-03T16:20:01.398Z,98.38
2018-12-03T16:25:01.909Z,98.33
2018-12-03T16:30:01.688Z,98.49
2018-12-03T16:35:01.977Z,98.22
2018-12-03T16:40:01.238Z,98.3
2018-12-03T16:45:01.503Z,98.24
2018-12-03T16:50:01.753Z,98.1
2018-12-03T16:55:01.986Z,98.46
2018-12-03T17:00:01.243Z,100.15
2018-12-03T17:05:01.505Z,98.21
2018-12-03T17:10:01.752Z,98.63
2018-12-03T17:15:01.993Z,98.26
2018-12-03T17:20:01.261Z,98.28
2018-12-03T17:25:01.513Z,98.56
2018-12-03T17:30:01.785Z,98.17
2018-12-03T17:35:02.054Z,98.63
2018-12-03T17:40:01.323Z,98.27
2018-12-03T17:45:01.555Z,98.37
2018-12-03T17:50:01.864Z,98.39
2018-12-03T17:55:02.103Z,98.43
2018-12-03T18:00:01.365Z,98.34
2018-12-03T18:05:01.658Z,100.2
2018-12-03T18:10:01.911Z,98.37
2018-12-03T18:15:02.140Z,98.82
2018-12-03T18:20:01.420Z,98.27
2018-12-03T18:25:01.651Z,98.5
2018-12-03T18:30:01.906Z,98.29
2018-12-03T18:35:02.128Z,100.26
2018-12-03T18:40:01.426Z,98.33
2018-12-03T18:45:01.695Z,98.54
2018-12-03T18:50:01.943Z,98.43
2018-12-03T18:55:01.169Z,98.29
2018-12-03T19:00:01.470Z,98.45
2018-12-03T19:05:01.765Z,98.34
2018-12-03T19:10:02.009Z,98.63
2018-12-03T19:15:01.258Z,98.23
2018-12-03T19:20:01.521Z,98.38
2018-12-03T19:25:01.740Z,98.15
2018-12-03T19:30:01.987Z,99.86
2018-12-03T19:35:01.268Z,99.84
2018-12-03T19:40:01.513Z,98.08
2018-12-03T19:45:01.833Z,97.56
2018-12-03T19:50:02.094Z,97.66
2018-12-03T19:55:01.354Z,97.7
2018-12-03T20:00:01.658Z,97.57
2018-12-03T20:05:01.961Z,97.18
2018-12-03T20:10:01.202Z,95.99
2018-12-03T20:15:01.474Z,98.48
2018-12-03T20:20:01.755Z,97.97
2018-12-03T20:25:01.994Z,96.99
2018-12-03T20:30:01.256Z,97.81
2018-12-03T20:35:01.571Z,97.38
2018-12-03T20:40:01.851Z,97.09
2018-12-03T20:45:02.077Z,97.08
2018-12-03T20:50:01.323Z,97.54
2018-12-03T20:55:01.627Z,96.67
2018-12-03T21:00:01.885Z,96.2
2018-12-03T21:05:02.111Z,95.79
2018-12-03T21:10:01.383Z,95.87
2018-12-03T21:15:01.871Z,95.63
2018-12-03T21:20:02.156Z,94.89
2018-12-03T21:25:01.399Z,95.94
2018-12-03T21:30:01.646Z,95.68
2018-12-03T21:35:01.901Z,96.45
2018-12-03T21:40:02.145Z,95.65
2018-12-03T21:45:01.473Z,96.29
2018-12-03T21:50:07.198Z,96.44
2018-12-03T21:55:01.620Z,95.77
2018-12-03T22:00:01.935Z,96
2018-12-03T22:05:01.227Z,95.8
2018-12-03T22:10:01.500Z,94.81
2018-12-03T22:15:01.758Z,94.54
2018-12-03T22:20:02.034Z,94.38
2018-12-03T22:25:01.254Z,94.52
2018-12-03T22:30:01.498Z,93.32
2018-12-03T22:35:01.797Z,93.99
2018-12-03T22:40:02.253Z,94.33
2018-12-03T22:45:01.497Z,94.65
2018-12-03T22:50:01.741Z,93.19
2018-12-03T22:55:01.970Z,92.7
2018-12-03T23:00:01.242Z,93.29
2018-12-03T23:05:01.551Z,93
2018-12-03T23:10:01.826Z,93.78
2018-12-03T23:15:02.083Z,92.87
2018-12-03T23:20:01.346Z,93
2018-12-03T23:25:01.569Z,92.87
2018-12-03T23:30:01.811Z,92.11
2018-12-03T23:35:02.083Z,91.87
2018-12-03T23:40:01.337Z,92.07
2018-12-03T23:45:01.614Z,91.61
2018-12-03T23:50:01.896Z,92.85
2018-12-03T23:55:01.220Z,91.85
